createdAt,value
2022-11-02T00:01:55.785Z,101567.50
2022-11-02T00:04:22.759Z,101569.22
2022-11-02T00:06:49.625Z,101565.69
2022-11-02T00:09:16.507Z,101576.97
2022-11-02T00:11:43.434Z,101565.59
2022-11-02T00:14:10.306Z,101572.50
2022-11-02T00:16:39.971Z,101565.50
2022-11-02T00:19:08.290Z,101560.28
2022-11-02T00:21:36.762Z,101558.44
2022-11-02T00:24:05.834Z,101560.13
2022-11-02T00:26:35.471Z,101551.44
2022-11-02T00:29:04.548Z,101555.75
2022-11-02T00:31:31.861Z,101557.44
2022-11-02T00:33:58.745Z,101554.84
2022-11-02T00:36:25.655Z,101556.53
2022-11-02T00:38:52.534Z,101554.72
2022-11-02T00:41:20.249Z,101553.84
2022-11-02T00:43:47.367Z,101553.81
2022-11-02T00:46:14.934Z,101556.34
2022-11-02T00:48:42.246Z,101554.50
2022-11-02T00:51:10.035Z,101559.72
2022-11-02T00:53:37.032Z,101557.91
2022-11-02T00:56:03.975Z,101559.56
2022-11-02T00:58:30.868Z,101556.03
2022-11-02T01:00:57.905Z,101560.31
2022-11-02T01:03:25.916Z,101554.19
2022-11-02T01:05:52.812Z,101558.47
2022-11-02T01:08:19.718Z,101559.28
2022-11-02T01:10:48.329Z,101544.44
2022-11-02T01:13:16.910Z,101555.78
2022-11-02T01:15:43.827Z,101560.97
2022-11-02T01:18:10.712Z,101559.25
2022-11-02T01:20:37.607Z,101549.66
2022-11-02T01:23:04.522Z,101543.56
2022-11-02T01:25:31.411Z,101540.03
2022-11-02T01:27:58.289Z,101542.59
2022-11-02T01:30:25.203Z,101533.00
2022-11-02T01:32:52.111Z,101530.38
2022-11-02T01:35:20.215Z,101534.69
2022-11-02T01:37:47.094Z,101526.84
2022-11-02T01:40:14.086Z,101520.72
2022-11-02T01:42:41.026Z,101523.28
2022-11-02T01:45:09.518Z,101528.53
2022-11-02T01:47:39.275Z,101529.38
2022-11-02T01:50:16.510Z,101523.25
2022-11-02T01:52:43.472Z,101523.22
2022-11-02T01:55:12.551Z,101521.47
2022-11-02T01:57:43.588Z,101517.91
2022-11-02T02:00:15.810Z,101518.81
2022-11-02T02:03:07.422Z,101517.91
2022-11-02T02:05:40.293Z,101516.16
2022-11-02T02:08:09.895Z,101513.56
2022-11-02T02:10:36.927Z,101506.56
2022-11-02T02:13:07.306Z,101505.66
2022-11-02T02:15:56.248Z,101504.75
2022-11-02T02:18:48.866Z,101502.09
2022-11-02T02:22:15.647Z,101500.31
2022-11-02T02:25:19.237Z,101498.47
2022-11-02T02:28:26.219Z,101503.63
2022-11-02T02:31:03.257Z,101485.28
2022-11-02T02:34:10.620Z,101490.56
2022-11-02T02:37:04.094Z,101490.47
2022-11-02T02:39:42.005Z,101484.41
2022-11-02T02:42:23.397Z,101485.25
2022-11-02T02:45:17.006Z,101486.97
2022-11-02T02:47:52.790Z,101477.41
2022-11-02T02:50:29.835Z,101471.34
2022-11-02T02:52:59.627Z,101462.56
2022-11-02T02:55:33.134Z,101465.13
2022-11-02T02:58:02.745Z,101470.38
2022-11-02T03:00:31.501Z,101466.00
2022-11-02T03:03:03.043Z,101473.84
2022-11-02T03:05:35.157Z,101468.59
2022-11-02T03:08:11.742Z,101465.94
2022-11-02T03:10:56.851Z,101470.28
2022-11-02T03:13:48.299Z,101463.28
2022-11-02T03:16:49.455Z,101472.84
2022-11-02T03:19:43.879Z,101460.56
2022-11-02T03:22:31.313Z,101467.44
2022-11-02T03:25:13.867Z,101473.50
2022-11-02T03:28:27.318Z,101461.31
2022-11-02T03:31:11.801Z,101463.88
2022-11-02T03:33:53.988Z,101462.13
2022-11-02T03:36:31.850Z,101452.50
2022-11-02T03:39:08.798Z,101462.06
2022-11-02T03:41:43.540Z,101469.03
2022-11-02T03:44:21.604Z,101468.16
2022-11-02T03:46:51.598Z,101462.94
2022-11-02T03:49:20.320Z,101462.06
2022-11-02T03:51:50.018Z,101463.81
2022-11-02T03:54:33.475Z,101459.44
2022-11-02T03:59:32.559Z,101468.16
2022-11-02T04:02:00.960Z,101468.13
2022-11-02T04:04:29.259Z,101467.38
2022-11-02T04:06:57.081Z,101476.06
2022-11-02T04:09:24.499Z,101479.63
2022-11-02T04:12:09.962Z,101483.13
2022-11-02T04:14:41.444Z,101482.31
2022-11-02T04:20:08.903Z,101484.06
2022-11-02T04:22:54.378Z,101493.63
2022-11-02T04:25:21.721Z,101488.44
2022-11-02T04:28:14.838Z,101490.22
2022-11-02T04:31:00.709Z,101485.88
2022-11-02T04:33:35.128Z,101488.59
2022-11-02T04:36:08.043Z,101478.19
2022-11-02T04:38:41.887Z,101481.75
2022-11-02T04:41:42.399Z,101477.47
2022-11-02T04:44:15.847Z,101466.09
2022-11-02T04:46:46.105Z,101472.25
2022-11-02T04:49:15.004Z,101473.19
2022-11-02T04:51:48.767Z,101475.81
2022-11-02T04:54:18.777Z,101464.59
2022-11-02T04:56:48.970Z,101461.13
2022-11-02T04:59:16.665Z,101463.78
2022-11-02T05:01:43.822Z,101462.94
2022-11-02T05:04:11.170Z,101467.28
2022-11-02T05:06:39.450Z,101463.00
2022-11-02T05:09:06.406Z,101465.66
2022-11-02T05:11:34.341Z,101469.13
2022-11-02T05:14:01.932Z,101457.84
2022-11-02T05:16:29.636Z,101461.34
2022-11-02T05:18:57.868Z,101456.16
2022-11-02T05:21:25.657Z,101460.50
2022-11-02T05:23:54.750Z,101453.50
2022-11-02T05:26:22.419Z,101457.06
2022-11-02T05:28:52.589Z,101457.06
2022-11-02T05:31:20.370Z,101464.06
2022-11-02T05:33:48.814Z,101457.06
2022-11-02T05:36:19.569Z,101451.88
2022-11-02T05:38:55.913Z,101451.81
2022-11-02T05:41:23.854Z,101447.47
2022-11-02T05:43:53.742Z,101445.78
2022-11-02T05:46:22.275Z,101440.59
2022-11-02T05:48:49.147Z,101444.91
2022-11-02T05:51:16.008Z,101437.06
2022-11-02T05:53:42.882Z,101445.84
2022-11-02T05:56:11.542Z,101443.22
2022-11-02T05:58:38.462Z,101450.16
2022-11-02T06:01:07.659Z,101447.56
2022-11-02T06:03:34.995Z,101452.81
2022-11-02T06:06:09.231Z,101447.56
2022-11-02T06:08:37.924Z,101460.66
2022-11-02T06:11:10.747Z,101448.53
2022-11-02T06:13:38.004Z,101459.84
2022-11-02T06:16:09.479Z,101454.69
2022-11-02T06:18:37.792Z,101446.91
2022-11-02T06:21:05.231Z,101453.03
2022-11-02T06:23:32.093Z,101454.81
2022-11-02T06:26:00.915Z,101453.94
2022-11-02T06:28:28.481Z,101460.16
2022-11-02T06:30:56.110Z,101462.78
2022-11-02T06:33:23.550Z,101462.88
2022-11-02T06:35:53.172Z,101468.13
2022-11-02T06:38:20.643Z,101467.34
2022-11-02T06:41:00.177Z,101479.53
2022-11-02T06:43:27.091Z,101473.50
2022-11-02T06:45:58.338Z,101474.44
2022-11-02T06:48:32.991Z,101472.69
2022-11-02T06:51:02.495Z,101478.06
2022-11-02T06:53:29.410Z,101472.00
2022-11-02T06:55:58.274Z,101475.56
2022-11-02T06:58:26.128Z,101466.94
2022-11-02T07:01:07.164Z,101463.59
2022-11-02T07:03:34.975Z,101455.88
2022-11-02T07:06:02.352Z,101472.50
2022-11-02T07:08:29.629Z,101483.06
2022-11-02T07:10:57.218Z,101480.53
2022-11-02T07:13:24.110Z,101486.81
2022-11-02T07:15:55.059Z,101495.63
2022-11-02T07:18:22.722Z,101474.81
2022-11-02T07:20:49.733Z,101481.94
2022-11-02T07:23:16.625Z,101488.09
2022-11-02T07:25:43.497Z,101484.69
2022-11-02T07:28:10.413Z,101498.69
2022-11-02T07:30:37.286Z,101495.31
2022-11-02T07:33:04.641Z,101486.63
2022-11-02T07:35:31.860Z,101493.69
2022-11-02T07:38:07.054Z,101493.81
2022-11-02T07:40:36.154Z,101488.63
2022-11-02T07:43:03.783Z,101494.81
2022-11-02T07:45:38.579Z,101504.44
2022-11-02T07:48:05.511Z,101499.25
2022-11-02T07:50:32.389Z,101495.81
2022-11-02T07:52:59.351Z,101491.53
2022-11-02T07:55:29.575Z,101478.41
2022-11-02T07:57:58.151Z,101489.81
2022-11-02T08:00:30.213Z,101480.25
2022-11-02T08:02:59.672Z,101474.19
2022-11-02T08:05:28.010Z,101481.22
2022-11-02T08:08:03.203Z,101469.00
2022-11-02T08:10:35.491Z,101477.75
2022-11-02T08:13:08.969Z,101482.97
2022-11-02T08:15:36.456Z,101477.81
2022-11-02T08:18:19.106Z,101477.78
2022-11-02T08:20:47.655Z,101472.63
2022-11-02T08:23:16.681Z,101470.94
2022-11-02T08:25:45.740Z,101474.44
2022-11-02T08:28:17.315Z,101475.34
2022-11-02T08:30:44.275Z,101475.34
2022-11-02T08:33:15.474Z,101471.03
2022-11-02T08:35:44.339Z,101470.16
2022-11-02T08:38:11.838Z,101478.91
2022-11-02T08:40:39.433Z,101475.47
2022-11-02T08:43:14.463Z,101474.63
2022-11-02T08:48:31.881Z,101467.69
2022-11-02T08:50:58.799Z,101463.41
2022-11-02T08:53:25.674Z,101443.28
2022-11-02T08:55:52.565Z,101466.06
2022-11-02T08:58:19.883Z,101473.94
2022-11-02T09:00:46.781Z,101463.50
2022-11-02T09:03:15.770Z,101461.78
2022-11-02T09:05:45.434Z,101467.91
2022-11-02T09:08:20.627Z,101458.31
2022-11-02T09:10:52.536Z,101454.84
2022-11-02T09:13:25.261Z,101465.34
2022-11-02T09:15:58.405Z,101461.00
2022-11-02T09:18:25.321Z,101463.63
2022-11-02T09:20:52.213Z,101463.63
2022-11-02T09:23:23.315Z,101461.00
2022-11-02T09:25:50.522Z,101466.28
2022-11-02T09:28:17.754Z,101464.53
2022-11-02T09:30:44.763Z,101455.81
2022-11-02T09:33:13.399Z,101464.53
2022-11-02T09:35:46.923Z,101467.19
2022-11-02T09:38:14.678Z,101459.34
2022-11-02T09:41:12.388Z,101468.94
2022-11-02T09:44:07.431Z,101472.44
2022-11-02T09:46:40.233Z,101465.44
2022-11-02T09:49:23.638Z,101466.31
2022-11-02T09:51:59.171Z,101456.72
2022-11-02T09:54:50.631Z,101468.09
2022-11-02T09:57:30.702Z,101455.03
2022-11-02T09:59:57.950Z,101455.91
2022-11-02T10:02:33.208Z,101457.66
2022-11-02T10:05:30.601Z,101460.28
2022-11-02T10:08:22.244Z,101451.53
2022-11-02T10:11:26.748Z,101458.50
2022-11-02T10:14:02.578Z,101460.25
2022-11-02T10:16:46.582Z,101455.88
2022-11-02T10:19:19.731Z,101458.47
2022-11-02T10:21:51.343Z,101455.84
2022-11-02T10:24:37.310Z,101462.84
2022-11-02T10:27:26.661Z,101460.19
2022-11-02T10:30:18.277Z,101462.78
2022-11-02T10:32:48.141Z,101459.28
2022-11-02T10:36:19.502Z,101454.03
2022-11-02T10:39:10.647Z,101456.66
2022-11-02T10:42:04.241Z,101459.25
2022-11-02T10:45:08.555Z,101458.38
2022-11-02T10:48:07.956Z,101474.97
2022-11-02T10:51:05.576Z,101465.31
2022-11-02T10:53:41.796Z,101469.69
2022-11-02T10:56:32.463Z,101474.06
2022-11-02T10:59:03.174Z,101474.06
2022-11-02T11:01:32.488Z,101471.38
2022-11-02T11:04:21.143Z,101480.09
2022-11-02T11:06:48.230Z,101473.09
2022-11-02T11:09:27.070Z,101481.81
2022-11-02T11:12:03.738Z,101460.78
2022-11-02T11:20:38.722Z,101481.75
2022-11-02T11:23:22.940Z,101491.38
2022-11-02T11:26:06.725Z,101479.09
2022-11-02T11:28:40.978Z,101484.31
2022-11-02T11:31:16.715Z,101483.44
2022-11-02T11:33:54.034Z,101483.38
2022-11-02T11:36:33.639Z,101473.75
2022-11-02T11:39:29.432Z,101470.22
2022-11-02T11:41:57.122Z,101483.31
2022-11-02T11:44:24.267Z,101475.41
2022-11-02T11:46:56.883Z,101478.00
2022-11-02T11:49:41.981Z,101476.22
2022-11-02T11:52:32.133Z,101470.97
2022-11-02T11:55:24.899Z,101476.19
2022-11-02T11:58:21.762Z,101479.72
2022-11-02T12:01:18.122Z,101478.00
2022-11-02T12:03:56.567Z,101472.72
2022-11-02T12:06:53.293Z,101475.31
2022-11-02T12:09:40.737Z,101467.41
2022-11-02T12:12:38.426Z,101470.03
2022-11-02T12:15:38.783Z,101469.13
2022-11-02T12:18:39.188Z,101466.50
2022-11-02T12:21:39.051Z,101469.16
2022-11-02T12:24:35.612Z,101477.06
2022-11-02T12:27:31.896Z,101471.88
2022-11-02T12:30:12.587Z,101471.84
2022-11-02T12:33:01.999Z,101470.94
2022-11-02T12:35:50.470Z,101482.28
2022-11-02T12:38:35.807Z,101477.06
2022-11-02T12:41:08.117Z,101485.81
2022-11-02T12:43:50.715Z,101487.59
2022-11-02T12:46:48.719Z,101477.13
2022-11-02T12:49:47.917Z,101486.81
2022-11-02T12:53:00.157Z,101506.97
2022-11-02T12:55:41.357Z,101485.09
2022-11-02T12:58:23.657Z,101472.06
2022-11-02T13:00:57.245Z,101472.97
2022-11-02T13:03:59.766Z,101469.53
2022-11-02T13:06:44.466Z,101468.72
2022-11-02T13:09:37.004Z,101470.50
2022-11-02T13:12:16.895Z,101465.28
2022-11-02T13:14:50.410Z,101454.84
2022-11-02T13:17:35.038Z,101477.59
2022-11-02T13:20:13.299Z,101480.22
2022-11-02T13:22:41.280Z,101492.47
2022-11-02T13:25:27.232Z,101487.25
2022-11-02T13:28:04.216Z,101498.63
2022-11-02T13:30:33.677Z,101500.38
2022-11-02T13:33:17.414Z,101495.16
2022-11-02T13:35:46.116Z,101509.13
2022-11-02T13:38:12.850Z,101510.88
2022-11-02T13:40:48.913Z,101502.13
2022-11-02T13:44:09.653Z,101503.88
2022-11-02T13:46:53.372Z,101532.75
2022-11-02T13:49:34.716Z,101547.59
2022-11-02T13:52:10.682Z,101561.63
2022-11-02T13:54:48.971Z,101554.63
2022-11-02T13:57:38.709Z,101555.47
2022-11-02T14:00:28.663Z,101571.25
2022-11-02T14:03:11.421Z,101584.34
2022-11-02T14:05:51.801Z,101588.75
2022-11-02T14:08:41.099Z,101575.63
2022-11-02T14:11:11.003Z,101576.53
2022-11-02T14:13:56.161Z,101584.38
2022-11-02T14:16:50.586Z,101568.66
2022-11-02T14:19:34.513Z,101574.75
2022-11-02T14:22:01.253Z,101576.50
2022-11-02T14:24:34.041Z,101600.09
2022-11-02T14:27:04.731Z,101597.47
2022-11-02T14:29:44.898Z,101610.59
2022-11-02T14:32:20.596Z,101606.22
2022-11-02T14:35:10.308Z,101609.69
2022-11-02T14:38:00.241Z,101614.88
2022-11-02T14:41:10.467Z,101605.25
2022-11-02T14:44:16.634Z,101617.50
2022-11-02T14:47:01.346Z,101623.53
2022-11-02T14:49:39.048Z,101621.78
2022-11-02T14:52:30.478Z,101626.16
2022-11-02T14:55:18.988Z,101634.00
2022-11-02T14:57:56.961Z,101630.47
2022-11-02T15:00:49.137Z,101623.47
2022-11-02T15:03:25.196Z,101635.63
2022-11-02T15:06:10.871Z,101635.59
2022-11-02T15:08:53.183Z,101639.97
2022-11-02T15:11:41.839Z,101640.81
2022-11-02T15:14:36.796Z,101639.03
2022-11-02T15:17:15.469Z,101651.22
2022-11-02T15:19:47.478Z,101653.78
2022-11-02T15:22:31.622Z,101655.47
2022-11-02T15:25:14.021Z,101659.81
2022-11-02T15:27:43.836Z,101658.06
2022-11-02T15:30:16.475Z,101662.38
2022-11-02T15:33:02.007Z,101655.34
2022-11-02T15:35:37.486Z,101670.16
2022-11-02T15:38:29.509Z,101660.50
2022-11-02T15:41:17.068Z,101668.34
2022-11-02T15:44:08.445Z,101669.16
2022-11-02T15:47:24.345Z,101670.84
2022-11-02T15:50:24.510Z,101681.28
2022-11-02T15:53:28.347Z,101684.75
2022-11-02T15:56:43.670Z,101686.47
2022-11-02T15:59:38.418Z,101690.81
2022-11-02T16:02:27.287Z,101689.06
2022-11-02T16:04:58.186Z,101696.91
2022-11-02T16:07:33.240Z,101701.25
2022-11-02T16:10:21.334Z,101704.75
2022-11-02T16:12:59.777Z,101703.88
2022-11-02T16:15:27.421Z,101704.75
2022-11-02T16:17:54.976Z,101719.56
2022-11-02T16:20:29.303Z,101715.19
2022-11-02T16:23:05.130Z,101708.09
2022-11-02T16:25:46.070Z,101735.22
2022-11-02T16:28:21.214Z,101736.06
2022-11-02T16:31:19.244Z,101722.94
2022-11-02T16:33:58.765Z,101723.78
2022-11-02T16:36:36.050Z,101732.50
2022-11-02T16:39:16.807Z,101749.00
2022-11-02T16:41:52.452Z,101747.25
2022-11-02T16:44:27.904Z,101745.47
2022-11-02T16:47:00.940Z,101743.69
2022-11-02T16:49:29.009Z,101751.50
2022-11-02T16:51:59.112Z,101749.75
2022-11-02T16:54:27.118Z,101762.78
2022-11-02T16:56:57.377Z,101769.72
2022-11-02T16:59:25.458Z,101771.44
2022-11-02T17:01:59.957Z,101768.75
2022-11-02T17:04:30.878Z,101768.69
2022-11-02T17:07:30.680Z,101766.88
2022-11-02T17:09:59.662Z,101769.44
2022-11-02T17:12:38.158Z,101764.94
2022-11-02T17:15:17.093Z,101773.63
2022-11-02T17:17:44.173Z,101777.97
2022-11-02T17:20:11.621Z,101778.84
2022-11-02T17:22:56.958Z,101777.91
2022-11-02T17:25:31.807Z,101783.97
2022-11-02T17:28:01.728Z,101790.03
2022-11-02T17:30:34.512Z,101785.63
2022-11-02T17:33:25.230Z,101782.03
2022-11-02T17:35:55.658Z,101784.69
2022-11-02T17:38:26.709Z,101796.84
2022-11-02T17:40:54.554Z,101808.13
2022-11-02T17:43:23.206Z,101803.69
2022-11-02T17:46:00.656Z,101800.13
2022-11-02T17:48:31.236Z,101800.06
2022-11-02T17:51:02.250Z,101799.97
2022-11-02T17:53:29.162Z,101806.94
2022-11-02T17:55:56.475Z,101817.25
2022-11-02T17:58:23.366Z,101808.53
2022-11-02T18:00:52.190Z,101819.00
2022-11-02T18:03:22.362Z,101823.28
2022-11-02T18:05:53.566Z,101818.03
2022-11-02T18:08:24.196Z,101824.97
2022-11-02T18:10:52.297Z,101826.66
2022-11-02T18:13:22.726Z,101817.88
2022-11-02T18:15:50.029Z,101828.28
2022-11-02T18:18:16.909Z,101826.53
2022-11-02T18:20:43.816Z,101827.38
2022-11-02T18:23:16.739Z,101821.19
2022-11-02T18:25:43.722Z,101817.69
2022-11-02T18:28:10.638Z,101821.13
2022-11-02T18:30:42.078Z,101815.84
2022-11-02T18:33:13.421Z,101811.44
2022-11-02T18:35:42.145Z,101817.47
2022-11-02T18:38:09.026Z,101820.91
2022-11-02T18:40:36.096Z,101809.56
2022-11-02T18:43:03.474Z,101817.34
2022-11-02T18:45:30.681Z,101818.16
2022-11-02T18:47:57.579Z,101814.66
2022-11-02T18:50:24.501Z,101811.03
2022-11-02T18:52:51.660Z,101819.72
2022-11-02T18:55:18.636Z,101817.06
2022-11-02T18:57:45.814Z,101823.16
2022-11-02T19:00:13.870Z,101823.09
2022-11-02T19:02:41.089Z,101833.50
2022-11-02T19:05:28.338Z,101835.22
2022-11-02T19:08:13.493Z,101836.91
2022-11-02T19:10:41.253Z,101835.09
2022-11-02T19:13:08.349Z,101835.81
2022-11-02T19:15:38.501Z,101842.84
2022-11-02T19:18:09.167Z,101848.88
2022-11-02T19:20:36.079Z,101854.88
2022-11-02T19:23:03.004Z,101845.34
2022-11-02T19:25:29.891Z,101854.88
2022-11-02T19:27:56.855Z,101843.41
2022-11-02T19:30:23.746Z,101852.19
2022-11-02T19:32:50.643Z,101840.84
2022-11-02T19:35:17.539Z,101846.91
2022-11-02T19:37:44.416Z,101839.06
2022-11-02T19:40:11.751Z,101836.31
2022-11-02T19:42:39.731Z,101847.69
2022-11-02T19:45:07.063Z,101840.56
2022-11-02T19:47:34.496Z,101845.88
2022-11-02T19:50:01.375Z,101848.44
2022-11-02T19:52:28.234Z,101847.56
2022-11-02T19:54:55.118Z,101850.97
2022-11-02T19:57:21.991Z,101850.97
2022-11-02T19:59:48.868Z,101837.03
2022-11-02T20:02:16.012Z,101837.00
2022-11-02T20:04:44.258Z,101830.78
2022-11-02T20:07:11.138Z,101844.78
2022-11-02T20:09:38.790Z,101838.63
2022-11-02T20:12:07.519Z,101849.84
2022-11-02T20:14:36.296Z,101846.38
2022-11-02T20:17:29.665Z,101846.28
2022-11-02T20:19:50.067Z,101850.66
2022-11-02T20:22:18.401Z,101847.13
2022-11-02T20:24:45.335Z,101854.03
2022-11-02T20:27:13.897Z,101858.38
2022-11-02T20:29:40.882Z,101856.59
2022-11-02T20:32:10.210Z,101851.31
2022-11-02T20:34:37.273Z,101835.47
2022-11-02T20:37:05.063Z,101849.50
2022-11-02T20:39:31.939Z,101853.81
2022-11-02T20:41:58.820Z,101849.41
2022-11-02T20:44:25.755Z,101849.31
2022-11-02T20:46:53.557Z,101859.72
2022-11-02T20:49:36.437Z,101860.63
2022-11-02T20:52:08.798Z,101867.41
2022-11-02T20:54:35.854Z,101859.66
2022-11-02T20:57:02.773Z,101864.88
2022-11-02T20:59:29.646Z,101870.06
2022-11-02T21:01:56.617Z,101862.16
2022-11-02T21:04:23.662Z,101863.06
2022-11-02T21:06:50.814Z,101865.63
2022-11-02T21:09:18.792Z,101873.44
2022-11-02T21:12:04.619Z,101861.19
2022-11-02T21:14:31.666Z,101858.56
2022-11-02T21:16:58.744Z,101865.44
2022-11-02T21:19:25.634Z,101865.41
2022-11-02T21:21:58.103Z,101857.56
2022-11-02T21:24:26.537Z,101861.91
2022-11-02T21:26:53.396Z,101859.31
2022-11-02T21:29:21.180Z,101859.31
2022-11-02T21:31:48.179Z,101859.25
2022-11-02T21:34:15.066Z,101861.84
2022-11-02T21:36:41.930Z,101867.06
2022-11-02T21:39:08.819Z,101866.13
2022-11-02T21:41:36.683Z,101873.03
2022-11-02T21:44:03.755Z,101861.69
2022-11-02T21:46:30.658Z,101859.03
2022-11-02T21:48:57.556Z,101865.03
2022-11-02T21:51:24.512Z,101866.72
2022-11-02T21:53:51.875Z,101869.19
2022-11-02T21:56:25.587Z,101865.72
2022-11-02T21:58:54.562Z,101860.44
2022-11-02T22:01:45.162Z,101872.53
2022-11-02T22:04:31.759Z,101873.28
2022-11-02T22:07:00.478Z,101861.88
2022-11-02T22:09:28.595Z,101869.72
2022-11-02T22:12:14.943Z,101869.69
2022-11-02T22:14:43.929Z,101873.97
2022-11-02T22:17:22.058Z,101866.06
2022-11-02T22:19:58.558Z,101873.84
2022-11-02T22:22:25.470Z,101874.63
2022-11-02T22:24:52.326Z,101873.75
2022-11-02T22:27:19.209Z,101869.34
2022-11-02T22:29:46.142Z,101869.34
2022-11-02T22:32:14.569Z,101863.16
2022-11-02T22:34:43.462Z,101870.88
2022-11-02T22:37:28.775Z,101864.69
2022-11-02T22:39:55.683Z,101862.88
2022-11-02T22:42:22.564Z,101862.75
2022-11-02T22:44:49.434Z,101855.75
2022-11-02T22:47:16.394Z,101855.63
2022-11-02T22:49:43.249Z,101859.00
2022-11-02T22:52:10.169Z,101845.03
2022-11-02T22:54:37.091Z,101850.97
2022-11-02T22:57:04.133Z,101847.47
2022-11-02T22:59:31.017Z,101856.84
2022-11-02T23:01:57.960Z,101853.31
2022-11-02T23:04:24.946Z,101856.72
2022-11-02T23:06:51.817Z,101847.94
2022-11-02T23:09:18.723Z,101845.25
2022-11-02T23:11:45.580Z,101843.44
2022-11-02T23:14:15.111Z,101845.97
2022-11-02T23:16:47.016Z,101845.88
2022-11-02T23:19:27.170Z,101837.97
2022-11-02T23:22:17.617Z,101848.28
2022-11-02T23:25:11.005Z,101838.56
2022-11-02T23:28:04.538Z,101848.88
2022-11-02T23:30:53.886Z,101841.81
2022-11-02T23:33:22.227Z,101847.84
2022-11-02T23:36:08.088Z,101843.38
2022-11-02T23:38:53.655Z,101837.09
2022-11-02T23:41:20.535Z,101843.28
2022-11-02T23:43:48.376Z,101838.81
2022-11-02T23:46:15.748Z,101840.47
2022-11-02T23:48:45.016Z,101849.94
2022-11-02T23:51:32.366Z,101833.41
2022-11-02T23:54:17.908Z,101839.34
2022-11-02T23:56:44.994Z,101837.53
2022-11-02T23:59:17.336Z,101825.94
